ADDS METAR Data INFO
IDs: Format: Raw Decoded Include TAF

Data at: 0644 UTC 23 Feb 2018

KHBI 230635Z AUTO 00000KT 10SM CLR 15/14 A3043 RMK AO2 T01520140
KHBI 230615Z AUTO 00000KT 10SM CLR 16/14 A3043 RMK AO2 T01640143
KHBI 230555Z AUTO 00000KT 10SM CLR 17/15 A3043 RMK AO2 T01740145 10210 20174 402420174
KHBI 230535Z AUTO 18003KT 10SM CLR 18/15 A3042 RMK AO2 T01820145
KHBI 230515Z AUTO 19003KT 10SM CLR 19/15 A3042 RMK AO2 T01880147
KHBI 230455Z AUTO 17004KT 10SM CLR 19/15 A3042 RMK AO2 T01850148
KHBI 230435Z AUTO 18004KT 10SM CLR 19/15 A3043 RMK AO2 T01930152
KHBI 230415Z AUTO 18004KT 10SM CLR 20/16 A3043 RMK AO2 T01950155
KHBI 230355Z AUTO 17005KT 10SM CLR 19/16 A3043 RMK AO2 T01920156
KHBI 230335Z AUTO 17005KT 10SM CLR 19/16 A3044 RMK AO2 T01900157
KHBI 230315Z AUTO 18004KT 10SM CLR 19/16 A3044 RMK AO2 T01940158
KHBI 230255Z AUTO 18003KT 10SM CLR 19/16 A3044 RMK AO2 T01940158
KHBI 230235Z AUTO 18004KT 10SM CLR 19/16 A3044 RMK AO2 T01930158
KHBI 230215Z AUTO 17003KT 10SM CLR 20/16 A3044 RMK AO2 T01950158
KHBI 230155Z AUTO 16004KT 10SM CLR 20/16 A3043 RMK AO2 T01960158
KHBI 230135Z AUTO 15004KT 10SM CLR 20/16 A3043 RMK AO2 T01980160
KHBI 230115Z AUTO 14003KT 10SM CLR 20/16 A3043 RMK AO2 T02010160
KHBI 230055Z AUTO 15004KT 10SM CLR 20/16 A3042 RMK AO2 T02010160
KHBI 230035Z AUTO 15004KT 10SM CLR 21/16 A3042 RMK AO2 T02080158
KHBI 230015Z AUTO 16004KT 10SM CLR 21/16 A3041 RMK AO2 T02050157
KHBI 222355Z AUTO 17004KT 10SM CLR 21/16 A3041 RMK AO2 T02100157 10242 20210
KHBI 222335Z AUTO 16003KT 10SM CLR 21/16 A3040 RMK AO2 T02110160
KHBI 222315Z AUTO 17005KT 10SM CLR 23/16 A3040 RMK AO2 T02260159
KHBI 222255Z AUTO 18005KT 10SM CLR 23/16 A3040 RMK AO2 T02320160
KHBI 222235Z AUTO 21006KT 10SM CLR 24/16 A3040 RMK AO2 T02350160
KHBI 222215Z AUTO 20007KT 10SM SCT039 24/16 A3039 RMK AO2 T02370159
KHBI 222155Z AUTO 20006KT 10SM SCT036 24/16 A3039 RMK AO2 T02400160
KHBI 222135Z AUTO 21008KT 10SM SCT036 24/16 A3039 RMK AO2 T02420160
KHBI 222115Z AUTO 21008KT 10SM SCT036 24/16 A3039 RMK AO2 T02400160
KHBI 222055Z AUTO 23010G16KT 10SM CLR 24/16 A3039 RMK AO2 T02400160
KHBI 222035Z AUTO 23012G15KT 10SM SCT031 24/16 A3040 RMK AO2 T02400162
KHBI 222015Z AUTO 21012KT 10SM SCT029 24/16 A3040 RMK AO2 T02350162
KHBI 221955Z AUTO 20011G15KT 10SM SCT029 23/16 A3041 RMK AO2 T02310162
KHBI 221935Z AUTO 20012KT 10SM OVC027 23/16 A3041 RMK AO2 T02250163
KHBI 221915Z AUTO 21012G15KT 10SM OVC025 22/17 A3043 RMK AO2 T02230165
KHBI 221855Z AUTO 19009KT 10SM OVC023 22/17 A3043 RMK AO2 T02160165
KHBI 221835Z AUTO 17006KT 10SM OVC021 21/17 A3044 RMK AO2 T02130165
KHBI 221815Z AUTO 21009G18KT 10SM OVC019 21/17 A3045 RMK AO2 T02110165
KHBI 221755Z AUTO 19007KT 10SM OVC019 21/17 A3046 RMK AO2 T02100165 10210 20183
KHBI 221735Z AUTO 21011KT 10SM OVC019 21/17 A3048 RMK AO2 T02050165
KHBI 221715Z AUTO 21008KT 10SM OVC017 20/17 A3049 RMK AO2 T02020165
KHBI 221655Z AUTO 20007KT 10SM OVC017 20/17 A3049 RMK AO2 T01990165
KHBI 221635Z AUTO 22007KT 10SM OVC017 20/17 A3050 RMK AO2 T01970165
KHBI 221615Z AUTO 23008KT 10SM OVC017 20/17 A3050 RMK AO2 T01960165
KHBI 221555Z AUTO 21007KT 10SM OVC015 19/17 A3050 RMK AO2 T01930166
KHBI 221535Z AUTO 21006KT 10SM OVC013 19/17 A3050 RMK AO2 T01900166
KHBI 221515Z AUTO 22008KT 10SM OVC015 19/17 A3050 RMK AO2 T01900165
KHBI 221455Z AUTO 21006KT 10SM OVC015 19/17 A3050 RMK AO2 T01870167
KHBI 221435Z AUTO 21007KT 10SM OVC013 19/17 A3050 RMK AO2 T01870167
KHBI 221415Z AUTO 22007KT 10SM OVC015 19/17 A3050 RMK AO2 T01880166
KHBI 221355Z AUTO 20008KT 10SM OVC013 19/17 A3050 RMK AO2 T01870166
KHBI 221335Z AUTO 20011KT 170V250 10SM OVC013 19/17 A3049 RMK AO2 T01870167
KHBI 221315Z AUTO 20010KT 10SM OVC015 19/17 A3048 RMK AO2 T01870167
KHBI 221255Z AUTO 20007KT 10SM OVC015 19/17 A3048 RMK AO2 T01850167
KHBI 221235Z AUTO 20007KT 10SM OVC015 18/17 A3047 RMK AO2 T01840167
KHBI 221215Z AUTO 19008KT 10SM OVC015 18/17 A3046 RMK AO2 T01830168
KHBI 221155Z AUTO 19010G14KT 10SM OVC015 18/17 A3046 RMK AO2 T01830170 10195 20180
KHBI 221135Z AUTO 20007KT 10SM OVC013 18/17 A3046 RMK AO2 T01820171
KHBI 221115Z AUTO 19007KT 10SM OVC011 18/17 A3045 RMK AO2 T01820170
KHBI 221055Z AUTO 20008G14KT 10SM OVC009 18/17 A3045 RMK AO2 T01820171
KHBI 221035Z AUTO 20010KT 10SM OVC009 18/17 A3045 RMK AO2 T01820171
KHBI 221015Z AUTO 20008G15KT 10SM OVC009 18/17 A3044 RMK AO2 T01820171
KHBI 220955Z AUTO 20007KT 10SM OVC009 18/17 A3044 RMK AO2 T01800170
KHBI 220935Z AUTO 20009KT 10SM OVC009 18/17 A3043 RMK AO2 T01800171
KHBI 220915Z AUTO 19008KT 10SM OVC009 18/17 A3043 RMK AO2 T01810172
KHBI 220855Z AUTO 21009G14KT 10SM OVC009 18/17 A3043 RMK AO2 T01820173
KHBI 220835Z AUTO 20010G14KT 10SM OVC009 18/18 A3043 RMK AO2 T01820175
KHBI 220815Z AUTO 19008KT 10SM BKN009 18/18 A3043 RMK AO2 T01820175
KHBI 220755Z AUTO 19006KT 10SM SCT009 18/18 A3044 RMK AO2 T01810175
KHBI 220735Z AUTO 20006KT 10SM BKN009 18/18 A3045 RMK AO2 T01830175
KHBI 220715Z AUTO 19005KT 10SM SCT011 BKN050 BKN065 19/18 A3045 RMK AO2 T01870175
KHBI 220655Z AUTO 19007KT 10SM SCT047 OVC055 19/18 A3045 RMK AO2 T01910175
KHBI 220635Z AUTO 19005KT 10SM SCT040 BKN050 OVC060 19/18 A3045 RMK AO2 T01920176
KHBI 220615Z AUTO 19005KT 10SM SCT038 BKN048 OVC055 19/18 A3045 RMK AO2 T01940176
KHBI 220555Z AUTO 19006KT 10SM SCT042 BKN048 19/18 A3044 RMK AO2 T01910176 10216 20176 402510173
KHBI 220535Z AUTO 18006KT 10SM SCT047 19/18 A3044 RMK AO2 T01900176
KHBI 220515Z AUTO 17007KT 10SM SCT047 19/18 A3044 RMK AO2 T01900176
KHBI 220455Z AUTO 17007KT 10SM CLR 19/18 A3044 RMK AO2 T01900175
KHBI 220435Z AUTO 17009KT 10SM CLR 19/18 A3044 RMK AO2 T01920176
KHBI 220415Z AUTO 17009KT 10SM CLR 20/18 A3043 RMK AO2 T01950175
KHBI 220355Z AUTO 17007KT 10SM CLR 20/18 A3043 RMK AO2 T01960175
KHBI 220035Z AUTO 16004KT 10SM CLR 21/16 A3042 RMK AO2 T02050163
KHBI 220015Z AUTO 16003KT 10SM CLR 21/16 A3042 RMK AO2 T02080163
KHBI 212355Z AUTO 17005KT 10SM CLR 22/17 A3041 RMK AO2 T02170165 10251 20215
KHBI 212335Z AUTO 15003KT 10SM CLR 22/16 A3041 RMK AO2 T02180163
KHBI 212315Z AUTO 16005KT 10SM SCT042 22/16 A3041 RMK AO2 T02240164
KHBI 212255Z AUTO 19004KT 10SM SCT042 24/16 A3040 RMK AO2 T02370160
KHBI 212235Z AUTO 21007KT 10SM CLR 24/16 A3040 RMK AO2 T02430159
KHBI 212215Z AUTO 21007KT 10SM CLR 25/16 A3040 RMK AO2 T02450160
KHBI 212155Z AUTO 19007KT 10SM SCT037 25/16 A3040 RMK AO2 T02460157
KHBI 212135Z AUTO 21006KT 10SM SCT037 SCT049 25/16 A3040 RMK AO2 T02480157
KHBI 212115Z AUTO 20009KT 10SM SCT037 BKN049 25/16 A3040 RMK AO2 T02490159
KHBI 212055Z AUTO 19009KT 10SM SCT037 OVC049 25/16 A3040 RMK AO2 T02450161
KHBI 212035Z AUTO 20007KT 10SM SCT037 BKN049 BKN055 24/16 A3041 RMK AO2 T02430161
KHBI 212015Z AUTO 22009KT 10SM SCT037 OVC047 25/16 A3041 RMK AO2 T02450159
KHBI 211955Z AUTO 22007KT 10SM BKN039 OVC047 24/16 A3042 RMK AO2 T02420160
KHBI 211935Z AUTO 19006KT 10SM BKN043 OVC049 24/16 A3042 RMK AO2 T02390159
KHBI 211915Z AUTO 21007G14KT 10SM OVC043 24/16 A3043 RMK AO2 T02400158
KHBI 211855Z AUTO 20009KT 10SM SCT038 OVC043 24/16 A3043 RMK AO2 T02380161